createdAt,value
2023-05-23T00:06:33.596Z,13.93
2023-05-23T00:11:20.530Z,13.35
2023-05-23T00:37:50.498Z,9.95
2023-05-23T00:41:30.786Z,15.13
2023-05-23T01:12:48.421Z,17.25
2023-05-23T01:20:26.641Z,21.08
2023-05-23T01:47:24.112Z,17.05
2023-05-23T01:49:53.923Z,20.50
2023-05-23T02:06:57.723Z,14.30
2023-05-23T02:19:05.816Z,15.68
2023-05-23T02:37:25.474Z,11.55
2023-05-23T02:39:53.147Z,13.95
2023-05-23T02:42:20.560Z,11.18
2023-05-23T02:44:48.007Z,13.63
2023-05-23T02:47:15.105Z,13.48
2023-05-23T02:49:42.081Z,16.00
2023-05-23T02:52:09.276Z,14.18
2023-05-23T02:54:36.578Z,13.02
2023-05-23T02:57:17.506Z,16.27
2023-05-23T02:59:52.140Z,16.58
2023-05-23T03:02:42.745Z,16.73
2023-05-23T03:05:21.672Z,15.25
2023-05-23T03:07:58.788Z,13.25
2023-05-23T03:11:04.604Z,11.32
2023-05-23T03:13:31.879Z,12.25
2023-05-23T03:15:58.985Z,13.60
2023-05-23T03:18:26.472Z,18.88
2023-05-23T03:20:53.967Z,14.20
2023-05-23T03:23:35.503Z,14.63
2023-05-23T03:26:26.778Z,12.60
2023-05-23T03:32:07.023Z,11.45
2023-05-23T03:34:57.350Z,9.23
2023-05-23T03:51:00.735Z,10.00
2023-05-23T03:53:29.350Z,11.25
2023-05-23T03:55:56.625Z,12.93
2023-05-23T03:58:23.925Z,11.43
2023-05-23T04:00:55.487Z,11.63
2023-05-23T04:03:22.833Z,9.88
2023-05-23T04:05:51.171Z,13.77
2023-05-23T04:13:13.638Z,13.93
2023-05-23T04:16:33.395Z,10.27
2023-05-23T04:19:10.116Z,14.63
2023-05-23T04:21:37.669Z,12.57
2023-05-23T04:24:29.860Z,14.10
2023-05-23T04:27:02.793Z,13.52
2023-05-23T04:32:52.868Z,13.90
2023-05-23T04:40:50.661Z,10.32
2023-05-23T04:44:54.212Z,10.88
2023-05-23T04:47:37.586Z,12.30
2023-05-23T04:50:08.908Z,11.85
2023-05-23T04:52:36.483Z,11.57
2023-05-23T04:55:04.825Z,16.73
2023-05-23T04:57:32.465Z,12.52
2023-05-23T05:00:01.696Z,14.40
2023-05-23T05:02:35.314Z,12.50
2023-05-23T05:09:17.575Z,10.50
2023-05-23T05:11:44.922Z,11.68
2023-05-23T05:14:12.081Z,17.48
2023-05-23T05:16:39.394Z,13.23
2023-05-23T05:19:06.822Z,12.35
2023-05-23T05:22:12.525Z,15.55
2023-05-23T05:24:52.900Z,15.68
2023-05-23T05:30:55.921Z,15.05
2023-05-23T05:33:25.201Z,14.55
2023-05-23T05:52:26.420Z,17.38
2023-05-23T06:03:16.400Z,21.60
2023-05-23T06:05:51.322Z,21.52
2023-05-23T06:08:18.514Z,24.80
2023-05-23T06:10:45.627Z,23.52
2023-05-23T06:17:19.832Z,21.95
2023-05-23T06:19:50.493Z,25.67
2023-05-23T06:22:33.008Z,21.58
2023-05-23T06:25:32.422Z,24.10
2023-05-23T06:28:27.569Z,22.20
2023-05-23T06:31:00.668Z,25.70
2023-05-23T06:33:28.562Z,21.80
2023-05-23T06:36:22.524Z,20.95
2023-05-23T06:41:43.173Z,23.73
2023-05-23T06:44:36.925Z,21.23
2023-05-23T06:47:34.902Z,19.85
2023-05-23T06:50:04.258Z,22.90
2023-05-23T06:52:58.472Z,22.77
2023-05-23T06:55:27.031Z,26.73
2023-05-23T06:58:47.231Z,20.00
2023-05-23T07:15:24.642Z,17.35
2023-05-23T07:39:16.539Z,18.23
2023-05-23T07:42:26.314Z,15.05
2023-05-23T07:48:57.959Z,14.77
2023-05-23T07:55:06.514Z,15.80
2023-05-23T07:58:25.167Z,18.80
2023-05-23T08:01:35.356Z,17.58
2023-05-23T08:04:46.434Z,16.60
2023-05-23T08:15:54.344Z,15.25
2023-05-23T08:18:37.965Z,15.77
2023-05-23T08:21:15.573Z,16.48
2023-05-23T08:24:39.485Z,19.95
2023-05-23T08:37:19.600Z,15.93
2023-05-23T08:39:48.044Z,16.95
2023-05-23T08:43:02.126Z,18.92
2023-05-23T09:29:06.946Z,31.50
2023-05-23T09:33:20.872Z,29.55
2023-05-23T09:36:19.430Z,43.60
2023-05-23T09:55:49.840Z,55.05
2023-05-23T09:58:20.685Z,44.00
2023-05-23T10:00:52.932Z,38.42
2023-05-23T10:06:01.937Z,36.40
2023-05-23T10:09:06.263Z,33.17
2023-05-23T10:11:33.695Z,29.45
2023-05-23T10:15:16.958Z,30.40
2023-05-23T10:18:15.734Z,22.05
2023-05-23T10:20:58.228Z,16.80
2023-05-23T10:23:28.657Z,19.75
2023-05-23T10:25:56.317Z,15.48
2023-05-23T10:28:44.398Z,15.88
2023-05-23T10:32:20.671Z,18.17
2023-05-23T10:35:04.669Z,13.93
2023-05-23T10:38:28.343Z,17.10
2023-05-23T10:41:23.125Z,17.98
2023-05-23T10:44:21.530Z,18.13
2023-05-23T10:47:01.510Z,14.75
2023-05-23T10:49:47.071Z,17.85
2023-05-23T10:52:17.647Z,15.70
2023-05-23T10:55:09.648Z,13.32
2023-05-23T10:58:12.465Z,15.98
2023-05-23T11:04:48.113Z,15.15
2023-05-23T11:07:42.628Z,17.42
2023-05-23T11:15:09.499Z,17.42
2023-05-23T11:24:03.701Z,20.23
2023-05-23T11:44:58.358Z,17.83
2023-05-23T11:47:26.162Z,15.48
2023-05-23T11:49:56.913Z,15.50
2023-05-23T11:52:42.563Z,19.23
2023-05-23T11:55:31.937Z,13.43
2023-05-23T11:57:59.404Z,15.07
2023-05-23T12:00:26.573Z,14.93
2023-05-23T12:02:53.837Z,14.68
2023-05-23T12:05:21.063Z,14.63
2023-05-23T12:07:49.925Z,13.98
2023-05-23T12:10:21.828Z,14.50
2023-05-23T12:15:18.966Z,14.35
2023-05-23T12:17:46.656Z,13.10
2023-05-23T12:20:14.396Z,11.35
2023-05-23T12:22:42.620Z,13.57
2023-05-23T12:25:11.230Z,12.98
2023-05-23T12:27:43.891Z,10.70
2023-05-23T12:30:15.187Z,9.23
2023-05-23T12:32:49.512Z,14.80
2023-05-23T12:35:17.757Z,12.95
2023-05-23T12:37:49.830Z,15.30
2023-05-23T12:40:18.996Z,15.20
2023-05-23T12:42:57.147Z,12.43
2023-05-23T12:45:32.872Z,11.95
2023-05-23T12:48:50.970Z,9.88
2023-05-23T12:51:18.351Z,9.98
2023-05-23T12:53:45.734Z,9.70
2023-05-23T12:57:50.681Z,11.25
2023-05-23T13:00:19.576Z,14.68
2023-05-23T13:02:46.785Z,13.35
2023-05-23T13:05:13.984Z,14.43
2023-05-23T13:07:41.491Z,13.25
2023-05-23T13:10:10.493Z,12.30
2023-05-23T13:12:37.666Z,14.32
2023-05-23T13:15:08.823Z,12.57
2023-05-23T13:17:36.134Z,13.18
2023-05-23T13:20:05.345Z,9.98
2023-05-23T13:22:32.825Z,9.30
2023-05-23T13:24:59.870Z,10.18
2023-05-23T13:27:40.744Z,15.68
2023-05-23T13:30:13.594Z,10.38
2023-05-23T13:34:42.941Z,12.88
2023-05-23T13:51:38.137Z,14.07
2023-05-23T13:54:06.141Z,11.30
2023-05-23T13:56:33.747Z,10.50
2023-05-23T13:59:01.866Z,10.32
2023-05-23T14:01:29.501Z,10.77
2023-05-23T14:03:56.745Z,11.60
2023-05-23T14:06:24.024Z,15.68
2023-05-23T14:08:51.584Z,13.82
2023-05-23T14:11:18.561Z,11.68
2023-05-23T14:13:46.099Z,12.80
2023-05-23T14:16:13.244Z,11.75
2023-05-23T14:18:41.513Z,7.78
2023-05-23T14:21:08.632Z,4.95
2023-05-23T14:23:35.703Z,6.22
2023-05-23T14:26:03.233Z,5.35
2023-05-23T14:28:30.674Z,5.50
2023-05-23T14:34:33.485Z,5.32
2023-05-23T14:46:44.262Z,5.43
2023-05-23T14:53:46.841Z,6.97
2023-05-23T14:58:18.211Z,9.40
2023-05-23T15:19:56.977Z,11.00
2023-05-23T15:26:08.094Z,13.88
2023-05-23T15:28:35.501Z,10.75
2023-05-23T15:31:05.792Z,12.07
2023-05-23T15:33:33.051Z,8.10
2023-05-23T15:36:00.516Z,8.35
2023-05-23T15:38:27.760Z,10.25
2023-05-23T15:40:56.564Z,9.88
2023-05-23T15:43:25.079Z,6.47
2023-05-23T15:45:52.851Z,8.50
2023-05-23T15:48:20.185Z,9.38
2023-05-23T15:50:49.934Z,7.22
2023-05-23T15:53:17.074Z,5.93
2023-05-23T15:55:44.472Z,6.82
2023-05-23T15:58:28.656Z,5.60
2023-05-23T16:00:56.135Z,7.15
2023-05-23T16:03:23.184Z,6.55
2023-05-23T16:05:50.405Z,7.13
2023-05-23T16:08:17.658Z,7.20
2023-05-23T16:11:29.464Z,6.88
2023-05-23T16:14:05.776Z,7.57
2023-05-23T16:16:33.350Z,7.10
2023-05-23T16:19:00.576Z,7.45
2023-05-23T16:21:27.721Z,7.97
2023-05-23T16:24:20.930Z,7.65
2023-05-23T16:27:17.970Z,8.27
2023-05-23T16:29:45.104Z,8.35
2023-05-23T16:32:31.191Z,7.75
2023-05-23T16:35:01.830Z,9.48
2023-05-23T16:46:06.560Z,10.48
2023-05-23T16:49:02.818Z,8.63
2023-05-23T16:56:09.872Z,9.02
2023-05-23T16:58:52.636Z,8.80
2023-05-23T17:01:45.060Z,10.07
2023-05-23T17:04:22.850Z,8.70
2023-05-23T17:11:27.371Z,7.35
2023-05-23T17:14:06.299Z,6.10
2023-05-23T17:16:37.698Z,7.15
2023-05-23T17:19:05.787Z,6.13
2023-05-23T17:21:33.569Z,8.02
2023-05-23T17:24:00.810Z,10.93
2023-05-23T17:27:20.071Z,9.80
2023-05-23T17:30:20.803Z,7.43
2023-05-23T17:33:16.134Z,6.75
2023-05-23T17:36:09.910Z,9.18
2023-05-23T17:39:09.825Z,5.47
2023-05-23T17:45:09.815Z,8.35
2023-05-23T17:48:42.591Z,8.70
2023-05-23T18:08:11.041Z,5.88
2023-05-23T18:11:28.771Z,3.65
2023-05-23T18:13:58.914Z,3.85
2023-05-23T18:17:34.215Z,5.80
2023-05-23T21:35:06.409Z,31.55
2023-05-23T21:37:33.806Z,25.17
2023-05-23T21:40:15.928Z,29.23
2023-05-23T21:42:43.086Z,22.15
2023-05-23T21:45:11.292Z,30.38
2023-05-23T21:47:38.781Z,20.80
2023-05-23T21:50:09.674Z,23.77
2023-05-23T21:52:38.023Z,29.02
2023-05-23T21:55:05.506Z,28.33
2023-05-23T21:57:32.868Z,26.20
2023-05-23T22:00:00.062Z,26.92
2023-05-23T22:02:28.135Z,24.30
2023-05-23T22:04:59.349Z,24.65
2023-05-23T22:07:26.882Z,18.65
2023-05-23T22:09:56.194Z,29.70
2023-05-23T22:12:23.673Z,30.08
2023-05-23T22:14:51.456Z,29.30
2023-05-23T22:17:22.148Z,22.90
2023-05-23T22:19:52.028Z,27.20
2023-05-23T22:22:19.545Z,31.48
2023-05-23T22:24:46.784Z,23.30
2023-05-23T22:27:14.005Z,20.17
2023-05-23T22:29:41.335Z,24.52
2023-05-23T22:32:08.940Z,27.90
2023-05-23T22:34:36.259Z,20.08
2023-05-23T22:37:03.609Z,23.05
2023-05-23T22:39:30.843Z,30.60
2023-05-23T22:41:58.978Z,17.05
2023-05-23T22:44:26.852Z,21.98
2023-05-23T22:46:54.436Z,20.55
2023-05-23T22:49:23.767Z,18.83
2023-05-23T22:52:09.801Z,29.67
2023-05-23T22:54:36.978Z,23.95
2023-05-23T22:57:04.317Z,27.65
2023-05-23T22:59:32.750Z,20.38
2023-05-23T23:02:00.099Z,29.65
2023-05-23T23:04:31.006Z,25.20
2023-05-23T23:06:59.334Z,23.48
2023-05-23T23:09:29.147Z,18.35
2023-05-23T23:11:56.231Z,28.30
2023-05-23T23:14:23.635Z,20.25
2023-05-23T23:16:51.122Z,17.05
2023-05-23T23:19:18.369Z,23.48
2023-05-23T23:21:45.705Z,22.83
2023-05-23T23:24:13.666Z,22.50
2023-05-23T23:26:41.008Z,23.42
2023-05-23T23:29:08.369Z,17.27
2023-05-23T23:31:35.899Z,24.17
2023-05-23T23:34:03.339Z,15.80
2023-05-23T23:36:30.939Z,18.23
2023-05-23T23:38:58.210Z,17.20
2023-05-23T23:41:26.878Z,24.17
2023-05-23T23:43:54.340Z,24.02
2023-05-23T23:46:21.767Z,22.55
2023-05-23T23:48:48.863Z,17.70
2023-05-23T23:51:16.232Z,21.27
2023-05-23T23:53:45.601Z,16.20
2023-05-23T23:56:14.756Z,21.70
2023-05-23T23:58:42.192Z,26.15
